Time;durP1;ratioP1;P1;durP2;ratioP2;P2;SDS_P1;SDS_P2;PMS_P1;PMS_P2;Temp;Humidity;BMP_temperature;BMP_pressure;BME280_temperature;BME280_humidity;BME280_pressure;Samples;Min_cycle;Max_cycle;Signal;HPM_P1;HPM_P2
2023/08/07 00:00:26;;;;;;;;;;;15.10;99.90;;;;;;5095438;28;20315;-63
2023/08/07 00:02:53;;;;;;;;;;;15.20;99.90;;;;;;5091136;28;19924;-63
2023/08/07 00:05:20;;;;;;;;;;;15.20;99.90;;;;;;5093986;28;20383;-63
2023/08/07 00:07:46;;;;;;;;;;;15.20;99.90;;;;;;5093032;28;19954;-63
2023/08/07 00:10:14;;;;;;;;;;;15.20;99.90;;;;;;5092802;28;19931;-63
2023/08/07 00:12:41;;;;;;;;;;;15.20;99.90;;;;;;5094021;28;20351;-63
2023/08/07 00:15:10;;;;;;;;;;;15.20;99.90;;;;;;5094012;28;19974;-64
2023/08/07 00:17:36;;;;;;;;;;;15.20;99.90;;;;;;5093109;28;19935;-64
2023/08/07 00:20:04;;;;;;;;;;;15.20;99.90;;;;;;5093872;28;20315;-64
2023/08/07 00:22:31;;;;;;;;;;;15.10;99.90;;;;;;5095047;28;19924;-64
2023/08/07 00:24:58;;;;;;;;;;;15.10;99.90;;;;;;5094158;28;20026;-64
2023/08/07 00:27:25;;;;;;;;;;;15.00;99.90;;;;;;5093982;28;19924;-64
2023/08/07 00:29:52;;;;;;;;;;;14.90;99.90;;;;;;5094775;28;19928;-64
2023/08/07 00:32:20;;;;;;;;;;;14.90;99.90;;;;;;5093252;28;19931;-64
2023/08/07 00:34:47;;;;;;;;;;;14.80;99.90;;;;;;5094603;28;20843;-63
2023/08/07 00:37:13;;;;;;;;;;;14.80;99.90;;;;;;5093035;28;20015;-64
2023/08/07 00:39:40;;;;;;;;;;;14.70;99.90;;;;;;5093518;28;19924;-63
2023/08/07 00:42:07;;;;;;;;;;;14.60;99.90;;;;;;5093195;28;19932;-63
2023/08/07 00:44:34;;;;;;;;;;;14.60;99.90;;;;;;5111311;28;19971;-64
2023/08/07 00:47:01;;;;;;;;;;;14.50;99.90;;;;;;5096562;28;19923;-63
2023/08/07 00:49:29;;;;;;;;;;;14.50;99.90;;;;;;5114538;28;19928;-64
2023/08/07 00:51:56;;;;;;;;;;;14.40;99.90;;;;;;5113995;28;19924;-64
2023/08/07 00:54:22;;;;;;;;;;;14.40;99.90;;;;;;5096548;28;19927;-64
2023/08/07 00:56:49;;;;;;;;;;;14.40;99.90;;;;;;5114644;28;20367;-63
2023/08/07 00:59:16;;;;;;;;;;;14.30;99.90;;;;;;5113721;28;20373;-64
2023/08/07 01:01:43;;;;;;;;;;;14.30;99.90;;;;;;5114851;28;19950;-64
2023/08/07 01:04:10;;;;;;;;;;;14.30;99.90;;;;;;5096064;28;20295;-64
2023/08/07 01:06:38;;;;;;;;;;;14.30;99.90;;;;;;5095269;28;19928;-64
2023/08/07 01:09:05;;;;;;;;;;;14.30;99.90;;;;;;5113868;28;19977;-64
2023/08/07 01:11:35;;;;;;;;;;;14.30;99.90;;;;;;5096382;28;19931;-64
2023/08/07 01:14:07;;;;;;;;;;;14.20;99.90;;;;;;5114129;28;19923;-64
2023/08/07 01:16:36;;;;;;;;;;;14.20;99.90;;;;;;5112282;28;19923;-64
2023/08/07 01:19:04;;;;;;;;;;;14.20;99.90;;;;;;5114002;28;19931;-63
2023/08/07 01:21:32;;;;;;;;;;;14.20;99.90;;;;;;5094989;28;20070;-64
2023/08/07 01:24:01;;;;;;;;;;;14.10;99.90;;;;;;5114107;28;19927;-64
2023/08/07 01:26:27;;;;;;;;;;;14.10;99.90;;;;;;5095570;28;20298;-64
2023/08/07 01:28:58;;;;;;;;;;;14.10;99.90;;;;;;5113326;28;19924;-64
2023/08/07 01:31:27;;;;;;;;;;;14.10;99.90;;;;;;5114138;28;19931;-64
2023/08/07 01:33:57;;;;;;;;;;;14.10;99.90;;;;;;5113427;28;19924;-64
2023/08/07 01:36:25;;;;;;;;;;;14.00;99.90;;;;;;5114209;28;19923;-65
2023/08/07 01:38:53;;;;;;;;;;;14.00;99.90;;;;;;5095683;28;19924;-64
2023/08/07 01:41:22;;;;;;;;;;;13.90;99.90;;;;;;5095288;28;19930;-64
2023/08/07 01:43:48;;;;;;;;;;;14.00;99.90;;;;;;5094903;28;20424;-64
2023/08/07 01:46:15;;;;;;;;;;;13.90;99.90;;;;;;5113776;28;19981;-63
2023/08/07 01:48:42;;;;;;;;;;;13.80;99.90;;;;;;5095013;28;20468;-63
2023/08/07 01:51:09;;;;;;;;;;;13.80;99.90;;;;;;5113729;28;19924;-63
2023/08/07 01:53:35;;;;;;;;;;;13.80;99.90;;;;;;5113636;28;19930;-63
2023/08/07 01:56:02;;;;;;;;;;;13.80;99.90;;;;;;5112952;28;19924;-64
2023/08/07 01:58:30;;;;;;;;;;;13.70;99.90;;;;;;5095473;28;20375;-64
2023/08/07 02:00:57;;;;;;;;;;;13.70;99.90;;;;;;5095329;28;20406;-64
2023/08/07 02:03:24;;;;;;;;;;;13.70;99.90;;;;;;5112905;28;20319;-64
2023/08/07 02:05:51;;;;;;;;;;;13.70;99.90;;;;;;5095362;28;19977;-64
2023/08/07 02:08:18;;;;;;;;;;;13.70;99.90;;;;;;5094992;28;20402;-64
2023/08/07 02:10:44;;;;;;;;;;;13.80;99.90;;;;;;5112690;28;19928;-64
2023/08/07 02:13:11;;;;;;;;;;;13.70;99.90;;;;;;5092913;28;19924;-65
2023/08/07 02:15:39;;;;;;;;;;;13.80;99.90;;;;;;5112654;28;19966;-64
2023/08/07 02:18:06;;;;;;;;;;;13.80;99.90;;;;;;5113542;28;19931;-64
2023/08/07 02:20:33;;;;;;;;;;;13.80;99.90;;;;;;5094794;28;19931;-63
2023/08/07 02:22:59;;;;;;;;;;;13.70;99.90;;;;;;5094521;28;19969;-64
2023/08/07 02:25:26;;;;;;;;;;;13.80;99.90;;;;;;5095063;28;19932;-63
2023/08/07 02:27:53;;;;;;;;;;;13.80;99.90;;;;;;5095065;28;19930;-64
2023/08/07 02:30:19;;;;;;;;;;;13.80;99.90;;;;;;5094329;28;20285;-64
2023/08/07 02:32:47;;;;;;;;;;;13.70;99.90;;;;;;5113140;28;19977;-63
2023/08/07 02:35:14;;;;;;;;;;;13.80;99.90;;;;;;5094908;28;20613;-63
2023/08/07 02:37:41;;;;;;;;;;;13.80;99.90;;;;;;5094443;28;20338;-63
2023/08/07 02:40:08;;;;;;;;;;;13.80;99.90;;;;;;5112604;28;20342;-64
2023/08/07 02:42:35;;;;;;;;;;;13.80;99.90;;;;;;5094592;28;19931;-64
2023/08/07 02:45:02;;;;;;;;;;;13.90;99.90;;;;;;5112287;28;20011;-63
2023/08/07 02:47:28;;;;;;;;;;;13.90;99.90;;;;;;5094694;28;19981;-64
2023/08/07 02:49:56;;;;;;;;;;;14.00;99.90;;;;;;5112652;28;19938;-64
2023/08/07 02:52:23;;;;;;;;;;;14.10;99.90;;;;;;5094049;28;19930;-64
2023/08/07 02:54:50;;;;;;;;;;;14.10;99.90;;;;;;5112515;28;19930;-63
2023/08/07 02:57:17;;;;;;;;;;;14.20;99.90;;;;;;5113043;28;19924;-64
2023/08/07 02:59:43;;;;;;;;;;;14.20;99.90;;;;;;5112138;28;19939;-63
2023/08/07 03:02:10;;;;;;;;;;;14.30;99.90;;;;;;5112909;28;19923;-63
2023/08/07 03:04:37;;;;;;;;;;;14.30;99.90;;;;;;5112441;28;20346;-63
2023/08/07 03:07:05;;;;;;;;;;;14.30;99.90;;;;;;5094175;28;19930;-63
2023/08/07 03:09:32;;;;;;;;;;;14.30;99.90;;;;;;5094571;28;20295;-63
2023/08/07 03:12:03;;;;;;;;;;;14.30;99.90;;;;;;5112270;28;19927;-64
2023/08/07 03:14:29;;;;;;;;;;;14.30;99.90;;;;;;5112624;28;19924;-63
2023/08/07 03:16:56;;;;;;;;;;;14.30;99.90;;;;;;5112689;28;19937;-64
2023/08/07 03:19:23;;;;;;;;;;;14.30;99.90;;;;;;5093793;28;19924;-63
2023/08/07 03:21:49;;;;;;;;;;;14.30;99.90;;;;;;5094513;28;19927;-63
2023/08/07 03:24:18;;;;;;;;;;;14.30;99.90;;;;;;5094260;28;19931;-63
2023/08/07 03:26:47;;;;;;;;;;;14.30;99.90;;;;;;5092989;28;19939;-64
2023/08/07 03:29:13;;;;;;;;;;;14.30;99.90;;;;;;5111354;28;20394;-63
2023/08/07 03:31:40;;;;;;;;;;;14.30;99.90;;;;;;5093924;28;19924;-63
2023/08/07 03:34:07;;;;;;;;;;;14.30;99.90;;;;;;5111817;28;20009;-63
2023/08/07 03:36:34;;;;;;;;;;;14.40;99.90;;;;;;5093957;28;19924;-63
2023/08/07 03:39:00;;;;;;;;;;;14.50;99.90;;;;;;5094452;28;20026;-63
2023/08/07 03:41:29;;;;;;;;;;;14.50;99.90;;;;;;5111745;28;19977;-63
2023/08/07 03:43:55;;;;;;;;;;;14.50;99.90;;;;;;5112167;28;20011;-63
2023/08/07 03:46:22;;;;;;;;;;;14.60;99.90;;;;;;5094638;28;19924;-63
2023/08/07 03:48:49;;;;;;;;;;;14.60;99.90;;;;;;5097419;28;19931;-64
2023/08/07 03:51:16;;;;;;;;;;;14.70;99.90;;;;;;5095331;28;19928;-64
2023/08/07 03:53:43;;;;;;;;;;;14.70;99.90;;;;;;5097796;28;20379;-63
2023/08/07 03:56:10;;;;;;;;;;;14.80;99.90;;;;;;5094987;28;19928;-63
2023/08/07 03:58:38;;;;;;;;;;;14.80;99.90;;;;;;5115855;28;20333;-63
2023/08/07 04:01:05;;;;;;;;;;;14.80;99.90;;;;;;5097348;28;20299;-63
2023/08/07 04:03:32;;;;;;;;;;;14.90;99.90;;;;;;5115201;28;19930;-63
2023/08/07 04:06:00;;;;;;;;;;;14.80;99.90;;;;;;5097472;28;20031;-62
2023/08/07 04:08:27;;;;;;;;;;;14.80;99.90;;;;;;5096940;28;19967;-63
2023/08/07 04:11:01;;;;;;;;;;;14.80;99.90;;;;;;5097313;28;19976;-63
2023/08/07 04:13:28;;;;;;;;;;;14.90;99.90;;;;;;5097247;28;19971;-63
2023/08/07 04:15:56;;;;;;;;;;;14.90;99.90;;;;;;5096335;28;19923;-63
2023/08/07 04:18:23;;;;;;;;;;;14.90;99.90;;;;;;5097444;28;19923;-63
2023/08/07 04:20:51;;;;;;;;;;;14.80;99.90;;;;;;5115202;28;20369;-63
2023/08/07 04:23:17;;;;;;;;;;;14.90;99.90;;;;;;5114690;28;20295;-63
2023/08/07 04:25:44;;;;;;;;;;;14.80;99.90;;;;;;5115226;28;19949;-63
2023/08/07 04:28:11;;;;;;;;;;;14.80;99.90;;;;;;5115189;28;19924;-63
2023/08/07 04:30:38;;;;;;;;;;;14.80;99.90;;;;;;5114511;28;19924;-63
2023/08/07 04:33:06;;;;;;;;;;;14.80;99.90;;;;;;5115448;28;19924;-63
2023/08/07 04:35:32;;;;;;;;;;;14.80;99.90;;;;;;5115092;28;19924;-63
2023/08/07 04:37:59;;;;;;;;;;;14.70;99.90;;;;;;5114493;28;19931;-63
2023/08/07 04:40:26;;;;;;;;;;;14.70;99.90;;;;;;5096918;28;19931;-63
2023/08/07 04:42:53;;;;;;;;;;;14.70;99.90;;;;;;5096527;28;19931;-63
2023/08/07 04:45:19;;;;;;;;;;;14.70;99.90;;;;;;5111810;28;20269;-63
2023/08/07 04:47:46;;;;;;;;;;;14.80;99.90;;;;;;5096693;28;19931;-63
2023/08/07 04:50:14;;;;;;;;;;;14.80;99.90;;;;;;5096890;28;19931;-64
2023/08/07 04:52:41;;;;;;;;;;;14.80;99.90;;;;;;5114021;28;19925;-64
2023/08/07 04:55:08;;;;;;;;;;;14.90;99.90;;;;;;5107176;28;19930;-64
2023/08/07 04:57:35;;;;;;;;;;;15.10;99.90;;;;;;5105555;28;20326;-65
2023/08/07 05:00:01;;;;;;;;;;;15.10;99.90;;;;;;5112330;28;19923;-65
2023/08/07 05:02:28;;;;;;;;;;;15.20;99.90;;;;;;5111391;28;19931;-65
2023/08/07 05:04:55;;;;;;;;;;;15.30;99.90;;;;;;5107759;28;19928;-65
2023/08/07 05:07:23;;;;;;;;;;;15.30;99.90;;;;;;5113525;28;19924;-65
2023/08/07 05:09:50;;;;;;;;;;;15.30;99.90;;;;;;5089919;28;19942;-64
2023/08/07 05:12:17;;;;;;;;;;;15.40;99.90;;;;;;5110343;28;19924;-64
2023/08/07 05:14:44;;;;;;;;;;;15.50;99.90;;;;;;5088889;28;19928;-64
2023/08/07 05:17:12;;;;;;;;;;;15.50;99.90;;;;;;5090775;28;19931;-64
2023/08/07 05:19:39;;;;;;;;;;;15.60;99.90;;;;;;5111241;28;19924;-65
2023/08/07 05:22:06;;;;;;;;;;;15.60;99.90;;;;;;5112834;28;19923;-64
2023/08/07 05:24:38;;;;;;;;;;;15.70;99.90;;;;;;5093974;28;21170;-65
2023/08/07 05:27:05;;;;;;;;;;;15.60;99.90;;;;;;5092789;28;19939;-65
2023/08/07 05:29:32;;;;;;;;;;;15.70;99.90;;;;;;5091312;28;19934;-63
2023/08/07 05:31:59;;;;;;;;;;;15.70;99.90;;;;;;5110607;28;19931;-64
2023/08/07 05:34:25;;;;;;;;;;;15.80;99.90;;;;;;5093923;28;19924;-64
2023/08/07 05:36:52;;;;;;;;;;;15.80;99.90;;;;;;5093903;28;19924;-64
2023/08/07 05:39:19;;;;;;;;;;;16.00;99.90;;;;;;5094919;28;20340;-64
2023/08/07 05:41:47;;;;;;;;;;;16.10;99.90;;;;;;5110881;28;19928;-64
2023/08/07 05:44:14;;;;;;;;;;;16.10;99.90;;;;;;5093507;28;19924;-64
2023/08/07 05:46:40;;;;;;;;;;;16.30;99.90;;;;;;5091485;28;19928;-64
2023/08/07 05:49:07;;;;;;;;;;;16.50;99.90;;;;;;5092829;28;19924;-65
2023/08/07 05:51:34;;;;;;;;;;;16.60;99.90;;;;;;5108139;28;19924;-64
2023/08/07 05:54:01;;;;;;;;;;;16.70;99.90;;;;;;5093968;28;20414;-64
2023/08/07 05:56:27;;;;;;;;;;;16.70;99.90;;;;;;5110399;28;19953;-64
2023/08/07 05:58:55;;;;;;;;;;;16.80;99.90;;;;;;5112466;28;20279;-65
2023/08/07 06:01:23;;;;;;;;;;;16.80;99.90;;;;;;5091936;28;19932;-64
2023/08/07 06:03:49;;;;;;;;;;;16.90;99.90;;;;;;5112231;28;20470;-64
2023/08/07 06:06:16;;;;;;;;;;;17.10;99.90;;;;;;5110886;28;19932;-64
2023/08/07 06:08:43;;;;;;;;;;;17.10;99.90;;;;;;5111368;28;20364;-64
2023/08/07 06:11:10;;;;;;;;;;;17.00;99.90;;;;;;5091107;28;21231;-64
2023/08/07 06:13:36;;;;;;;;;;;17.10;99.90;;;;;;5109399;28;19946;-64
2023/08/07 06:16:05;;;;;;;;;;;17.10;99.90;;;;;;5110124;28;19942;-64
2023/08/07 06:18:33;;;;;;;;;;;17.10;99.90;;;;;;5110006;28;19930;-64
2023/08/07 06:21:00;;;;;;;;;;;17.20;99.90;;;;;;5109691;28;19923;-65
2023/08/07 06:23:27;;;;;;;;;;;17.20;99.90;;;;;;5105568;28;19924;-64
2023/08/07 06:25:54;;;;;;;;;;;17.10;99.90;;;;;;5090576;28;19924;-64
2023/08/07 06:28:21;;;;;;;;;;;17.30;99.90;;;;;;5110131;28;19930;-65
2023/08/07 06:30:47;;;;;;;;;;;17.40;99.90;;;;;;5111096;28;19931;-64
2023/08/07 06:33:16;;;;;;;;;;;17.60;99.90;;;;;;5110517;28;19931;-64
2023/08/07 06:35:43;;;;;;;;;;;17.90;99.90;;;;;;5111525;28;19923;-64
2023/08/07 06:38:10;;;;;;;;;;;18.10;99.90;;;;;;5110275;28;20414;-64
2023/08/07 06:40:36;;;;;;;;;;;18.00;99.90;;;;;;5111268;28;19928;-64
2023/08/07 06:43:03;;;;;;;;;;;17.70;99.90;;;;;;5089264;28;19984;-64
2023/08/07 06:45:30;;;;;;;;;;;17.50;99.90;;;;;;5111546;28;19978;-64
2023/08/07 06:47:57;;;;;;;;;;;17.20;99.90;;;;;;5092200;28;19924;-64
2023/08/07 06:50:25;;;;;;;;;;;17.00;99.90;;;;;;5111170;28;19931;-64
2023/08/07 06:52:52;;;;;;;;;;;16.90;99.90;;;;;;5112776;28;19935;-65
2023/08/07 06:55:18;;;;;;;;;;;16.90;99.90;;;;;;5094606;28;19924;-64
2023/08/07 06:57:45;;;;;;;;;;;17.00;99.90;;;;;;5111899;28;19931;-64
2023/08/07 07:00:12;;;;;;;;;;;17.00;99.90;;;;;;5094428;28;19927;-65
2023/08/07 07:02:39;;;;;;;;;;;17.00;99.90;;;;;;5094626;28;19982;-65
2023/08/07 07:05:06;;;;;;;;;;;16.70;99.90;;;;;;5093899;28;19923;-65
2023/08/07 07:07:34;;;;;;;;;;;16.40;99.90;;;;;;5112633;28;19928;-65
2023/08/07 07:10:01;;;;;;;;;;;16.20;99.90;;;;;;5112558;28;19930;-65
2023/08/07 07:12:28;;;;;;;;;;;16.00;99.90;;;;;;5109556;28;19927;-65
2023/08/07 07:14:54;;;;;;;;;;;15.80;99.90;;;;;;5111881;28;19985;-64
2023/08/07 07:17:21;;;;;;;;;;;15.80;99.90;;;;;;5112145;28;19924;-64
2023/08/07 07:19:48;;;;;;;;;;;16.00;99.90;;;;;;5094126;28;19923;-64
2023/08/07 07:22:15;;;;;;;;;;;16.10;99.90;;;;;;5097762;28;19928;-64
2023/08/07 07:24:43;;;;;;;;;;;16.20;99.90;;;;;;5097341;28;20396;-64
2023/08/07 07:27:09;;;;;;;;;;;16.10;99.90;;;;;;5112998;28;20303;-64
2023/08/07 07:29:36;;;;;;;;;;;15.90;99.90;;;;;;5097901;28;19928;-66
2023/08/07 07:32:03;;;;;;;;;;;15.90;99.90;;;;;;5116056;28;19924;-65
2023/08/07 07:34:30;;;;;;;;;;;15.90;99.90;;;;;;5115193;28;19928;-63
2023/08/07 07:36:56;;;;;;;;;;;16.00;99.90;;;;;;5116188;28;20341;-63
2023/08/07 07:39:23;;;;;;;;;;;16.10;99.90;;;;;;5115312;28;19939;-63
2023/08/07 07:41:51;;;;;;;;;;;16.50;99.90;;;;;;5115996;28;20368;-63
2023/08/07 07:44:18;;;;;;;;;;;16.90;99.90;;;;;;5096887;28;20418;-64
2023/08/07 07:46:45;;;;;;;;;;;17.30;99.90;;;;;;5096677;28;20455;-63
2023/08/07 07:49:12;;;;;;;;;;;17.60;99.90;;;;;;5115418;28;19927;-64
2023/08/07 07:51:40;;;;;;;;;;;17.50;99.90;;;;;;5114796;28;19932;-64
2023/08/07 07:54:07;;;;;;;;;;;17.30;99.90;;;;;;5115038;28;19967;-64
2023/08/07 07:56:33;;;;;;;;;;;17.00;99.90;;;;;;5115647;28;19923;-64
2023/08/07 07:59:01;;;;;;;;;;;16.70;99.90;;;;;;5097669;28;20367;-64
2023/08/07 08:01:28;;;;;;;;;;;16.40;99.90;;;;;;5115064;28;20414;-64
2023/08/07 08:03:55;;;;;;;;;;;16.20;99.90;;;;;;5097342;28;19923;-64
2023/08/07 08:06:22;;;;;;;;;;;15.90;99.90;;;;;;5097128;28;19935;-64
2023/08/07 08:08:48;;;;;;;;;;;16.00;99.90;;;;;;5114869;28;20022;-64
2023/08/07 08:11:15;;;;;;;;;;;16.00;99.90;;;;;;5115437;28;19931;-65
2023/08/07 08:13:42;;;;;;;;;;;15.90;99.90;;;;;;5097323;28;19928;-63
2023/08/07 08:16:10;;;;;;;;;;;15.80;99.90;;;;;;5096655;28;20001;-66
2023/08/07 08:18:37;;;;;;;;;;;15.70;99.90;;;;;;5097220;28;19923;-66
2023/08/07 08:21:03;;;;;;;;;;;15.80;99.90;;;;;;5097561;28;19930;-65
2023/08/07 08:23:30;;;;;;;;;;;16.10;99.90;;;;;;5114494;28;19924;-65
2023/08/07 08:25:57;;;;;;;;;;;17.00;99.90;;;;;;5115054;28;19923;-65
2023/08/07 08:28:24;;;;;;;;;;;17.90;99.90;;;;;;5096461;28;20315;-66
2023/08/07 08:30:50;;;;;;;;;;;18.90;99.90;;;;;;5096970;28;19923;-64
2023/08/07 08:33:19;;;;;;;;;;;19.50;99.90;;;;;;5096470;28;19935;-64
2023/08/07 08:35:45;;;;;;;;;;;19.60;99.90;;;;;;5114428;28;19928;-64
2023/08/07 08:38:12;;;;;;;;;;;20.40;99.90;;;;;;5114861;28;19932;-65
2023/08/07 08:40:39;;;;;;;;;;;20.20;99.90;;;;;;5096481;28;19963;-64
2023/08/07 08:43:06;;;;;;;;;;;20.10;99.90;;;;;;5096013;28;20375;-65
2023/08/07 08:45:33;;;;;;;;;;;21.00;99.90;;;;;;5114843;28;19974;-64
2023/08/07 08:48:02;;;;;;;;;;;21.40;99.90;;;;;;5096629;28;20444;-64
2023/08/07 08:50:30;;;;;;;;;;;21.70;99.90;;;;;;5114055;28;19923;-65
2023/08/07 08:52:57;;;;;;;;;;;22.40;99.90;;;;;;5114646;28;19924;-65
2023/08/07 08:55:24;;;;;;;;;;;22.60;99.90;;;;;;5114460;28;19932;-65
2023/08/07 08:57:51;;;;;;;;;;;23.30;99.70;;;;;;5095934;28;20401;-65
2023/08/07 09:00:20;;;;;;;;;;;23.90;98.70;;;;;;5096057;28;19931;-65
2023/08/07 09:02:47;;;;;;;;;;;24.40;97.70;;;;;;5096560;28;19924;-65
2023/08/07 09:05:15;;;;;;;;;;;24.20;95.10;;;;;;5093403;28;19923;-65
2023/08/07 09:07:43;;;;;;;;;;;24.20;95.90;;;;;;5114238;28;19924;-64
2023/08/07 09:10:11;;;;;;;;;;;24.40;96.30;;;;;;5114241;28;20014;-65
2023/08/07 09:12:40;;;;;;;;;;;24.60;94.80;;;;;;5113650;28;19924;-65
2023/08/07 09:15:08;;;;;;;;;;;23.90;94.60;;;;;;5114150;28;19927;-65
2023/08/07 09:17:39;;;;;;;;;;;23.80;97.00;;;;;;5094081;28;20282;-65
2023/08/07 09:20:10;;;;;;;;;;;24.00;94.80;;;;;;5095971;28;20351;-64
2023/08/07 09:22:37;;;;;;;;;;;24.20;94.30;;;;;;5114309;28;19975;-65
2023/08/07 09:25:06;;;;;;;;;;;24.40;91.80;;;;;;5113387;28;19931;-65
2023/08/07 09:27:33;;;;;;;;;;;25.10;93.40;;;;;;5113821;28;19928;-64
2023/08/07 09:30:00;;;;;;;;;;;25.50;93.40;;;;;;5095923;28;19931;-64
2023/08/07 09:32:27;;;;;;;;;;;25.40;91.50;;;;;;5113173;28;19930;-65
2023/08/07 09:34:55;;;;;;;;;;;25.60;91.80;;;;;;5113687;28;20372;-65
2023/08/07 09:37:21;;;;;;;;;;;25.50;91.20;;;;;;5113814;28;19977;-65
2023/08/07 09:39:48;;;;;;;;;;;24.60;91.50;;;;;;5113268;28;19931;-65
2023/08/07 09:42:16;;;;;;;;;;;23.90;91.90;;;;;;5095225;28;20425;-64
2023/08/07 09:44:44;;;;;;;;;;;24.10;92.20;;;;;;5094803;28;19931;-65
2023/08/07 09:47:12;;;;;;;;;;;24.60;92.20;;;;;;5092992;28;19931;-64
2023/08/07 09:49:39;;;;;;;;;;;25.00;91.60;;;;;;5113310;28;20515;-64
2023/08/07 09:52:07;;;;;;;;;;;24.70;90.00;;;;;;5113676;28;19927;-65
2023/08/07 09:54:34;;;;;;;;;;;23.90;91.00;;;;;;5094680;28;19928;-65
2023/08/07 09:57:01;;;;;;;;;;;23.00;91.60;;;;;;5095531;28;19924;-64
2023/08/07 09:59:30;;;;;;;;;;;22.40;92.30;;;;;;5093314;28;19924;-65
2023/08/07 10:01:57;;;;;;;;;;;22.30;93.30;;;;;;5112609;28;19923;-64
2023/08/07 10:04:23;;;;;;;;;;;21.70;94.50;;;;;;5113503;28;19924;-64
2023/08/07 10:06:50;;;;;;;;;;;21.40;94.80;;;;;;5094433;28;19932;-64
2023/08/07 10:09:17;;;;;;;;;;;21.10;95.30;;;;;;5112906;28;19930;-64
2023/08/07 10:11:44;;;;;;;;;;;21.00;96.20;;;;;;5095151;28;19924;-64
2023/08/07 10:14:11;;;;;;;;;;;20.90;96.40;;;;;;5094665;28;20086;-64
2023/08/07 10:16:41;;;;;;;;;;;21.00;96.90;;;;;;5113005;28;19927;-64
2023/08/07 10:19:07;;;;;;;;;;;21.00;96.70;;;;;;5113347;28;19930;-64
2023/08/07 10:21:36;;;;;;;;;;;21.60;96.70;;;;;;5112535;28;19927;-64
2023/08/07 10:24:04;;;;;;;;;;;21.70;95.50;;;;;;5095152;28;19927;-64
2023/08/07 10:26:31;;;;;;;;;;;21.90;95.20;;;;;;5112566;28;20368;-65
2023/08/07 10:28:58;;;;;;;;;;;21.90;94.90;;;;;;5111456;28;19927;-65
2023/08/07 10:31:25;;;;;;;;;;;21.70;95.80;;;;;;5112381;28;19924;-65
2023/08/07 10:33:53;;;;;;;;;;;21.20;96.30;;;;;;5112075;28;19934;-65
2023/08/07 10:36:20;;;;;;;;;;;21.20;97.00;;;;;;5093543;28;19928;-64
2023/08/07 10:38:50;;;;;;;;;;;21.70;96.50;;;;;;5094144;28;19927;-63
2023/08/07 10:41:18;;;;;;;;;;;21.80;95.70;;;;;;5111893;28;19930;-64
2023/08/07 10:43:47;;;;;;;;;;;21.90;95.40;;;;;;5093121;28;19932;-64
2023/08/07 10:46:15;;;;;;;;;;;21.60;94.00;;;;;;5093537;28;19931;-64
2023/08/07 10:48:43;;;;;;;;;;;21.40;94.70;;;;;;5112120;28;19930;-64
2023/08/07 10:51:12;;;;;;;;;;;21.70;93.90;;;;;;5093483;28;19963;-64
2023/08/07 10:53:42;;;;;;;;;;;22.60;93.10;;;;;;5111977;28;20371;-64
2023/08/07 10:56:09;;;;;;;;;;;23.60;92.00;;;;;;5114028;28;20368;-64
2023/08/07 10:58:37;;;;;;;;;;;24.10;91.00;;;;;;5114187;28;20306;-65
2023/08/07 11:01:21;;;;;;;;;;;24.80;90.60;;;;;;5097997;28;19928;-65
2023/08/07 11:03:52;;;;;;;;;;;25.10;89.80;;;;;;5115470;28;20394;-65
2023/08/07 11:06:22;;;;;;;;;;;24.60;90.00;;;;;;5115827;28;19950;-65
2023/08/07 11:08:49;;;;;;;;;;;23.90;90.30;;;;;;5115846;28;19924;-65
2023/08/07 11:11:16;;;;;;;;;;;23.30;92.20;;;;;;5115338;28;19923;-65
2023/08/07 11:13:43;;;;;;;;;;;23.30;92.30;;;;;;5097873;28;19924;-65
2023/08/07 11:16:10;;;;;;;;;;;23.20;92.60;;;;;;5097757;28;19924;-64
2023/08/07 11:18:40;;;;;;;;;;;22.90;92.30;;;;;;5115121;28;19923;-66
2023/08/07 11:21:07;;;;;;;;;;;22.50;93.20;;;;;;5097719;28;20335;-64
2023/08/07 11:23:36;;;;;;;;;;;22.00;94.10;;;;;;5115777;28;19928;-64
2023/08/07 11:26:03;;;;;;;;;;;21.70;94.90;;;;;;5096712;28;19924;-64
2023/08/07 11:28:30;;;;;;;;;;;21.30;95.10;;;;;;5115728;28;20349;-65
2023/08/07 11:30:57;;;;;;;;;;;21.00;95.80;;;;;;5115344;28;20406;-65
2023/08/07 11:33:24;;;;;;;;;;;20.50;97.10;;;;;;5096924;28;19939;-63
2023/08/07 11:35:52;;;;;;;;;;;20.40;99.00;;;;;;5115305;28;19932;-64
2023/08/07 11:38:29;;;;;;;;;;;19.90;99.90;;;;;;5096828;28;19935;-65
2023/08/07 11:40:59;;;;;;;;;;;19.60;99.90;;;;;;5115384;28;19932;-64
2023/08/07 11:43:27;;;;;;;;;;;19.20;99.90;;;;;;5115222;28;19993;-64
2023/08/07 11:45:54;;;;;;;;;;;18.90;99.90;;;;;;5096120;28;20026;-64
2023/08/07 11:48:24;;;;;;;;;;;18.60;99.90;;;;;;5115031;28;19932;-65
2023/08/07 11:50:51;;;;;;;;;;;18.10;99.90;;;;;;5115219;28;19923;-67
2023/08/07 11:53:17;;;;;;;;;;;18.00;99.90;;;;;;5114579;28;19932;-64
2023/08/07 11:55:47;;;;;;;;;;;17.60;99.90;;;;;;5097032;28;19927;-64
2023/08/07 11:58:15;;;;;;;;;;;17.30;99.90;;;;;;5096928;28;19927;-63
2023/08/07 12:00:44;;;;;;;;;;;17.30;99.90;;;;;;5114098;28;20372;-64
2023/08/07 12:03:25;;;;;;;;;;;17.40;99.90;;;;;;5096888;28;19927;-64
2023/08/07 12:05:51;;;;;;;;;;;17.40;99.90;;;;;;5095114;28;20303;-64
2023/08/07 12:08:18;;;;;;;;;;;17.30;99.90;;;;;;5111961;28;19931;-65
2023/08/07 12:10:45;;;;;;;;;;;17.20;99.90;;;;;;5096101;28;19923;-64
2023/08/07 12:13:13;;;;;;;;;;;16.90;99.90;;;;;;5115511;28;19967;-64
2023/08/07 12:15:43;;;;;;;;;;;16.70;99.90;;;;;;5096869;28;19928;-64
2023/08/07 12:18:11;;;;;;;;;;;16.60;99.90;;;;;;5115464;28;19928;-64
2023/08/07 12:20:38;;;;;;;;;;;16.20;99.90;;;;;;5114864;28;20367;-64
2023/08/07 12:23:05;;;;;;;;;;;16.30;99.90;;;;;;5115249;28;20307;-64
2023/08/07 12:25:32;;;;;;;;;;;16.50;99.90;;;;;;5097212;28;19938;-64
2023/08/07 12:27:58;;;;;;;;;;;16.90;99.90;;;;;;5114608;28;20375;-64
2023/08/07 12:30:25;;;;;;;;;;;17.40;99.90;;;;;;5115337;28;19924;-65
2023/08/07 12:32:53;;;;;;;;;;;18.30;99.90;;;;;;5115093;28;19924;-65
2023/08/07 12:35:20;;;;;;;;;;;19.20;99.90;;;;;;5096558;28;20398;-64
2023/08/07 12:37:47;;;;;;;;;;;20.40;99.90;;;;;;5115053;28;19924;-64
2023/08/07 12:40:19;;;;;;;;;;;21.00;99.90;;;;;;5115023;28;20055;-65
2023/08/07 12:42:46;;;;;;;;;;;21.40;99.90;;;;;;5094398;28;19924;-63
2023/08/07 12:45:13;;;;;;;;;;;21.70;99.90;;;;;;5096599;28;20412;-63
2023/08/07 12:47:41;;;;;;;;;;;22.30;99.90;;;;;;5096513;28;19927;-65
2023/08/07 12:50:10;;;;;;;;;;;22.40;99.90;;;;;;5114072;28;19924;-65
2023/08/07 12:52:36;;;;;;;;;;;22.60;99.90;;;;;;5096536;28;20427;-65
2023/08/07 12:55:03;;;;;;;;;;;22.70;99.90;;;;;;5114721;28;19924;-65
2023/08/07 12:57:30;;;;;;;;;;;22.60;99.90;;;;;;5095984;28;19933;-63
2023/08/07 12:59:57;;;;;;;;;;;23.20;99.90;;;;;;5114791;28;19924;-64
2023/08/07 13:02:24;;;;;;;;;;;23.70;99.90;;;;;;5114481;28;19931;-64
2023/08/07 13:04:50;;;;;;;;;;;24.10;99.30;;;;;;5113994;28;19931;-64
2023/08/07 13:07:18;;;;;;;;;;;23.60;97.20;;;;;;5096104;28;19947;-65
2023/08/07 13:09:45;;;;;;;;;;;23.60;97.20;;;;;;5113796;28;19931;-64
2023/08/07 13:12:12;;;;;;;;;;;23.00;96.70;;;;;;5114484;28;20113;-65
2023/08/07 13:14:39;;;;;;;;;;;22.30;97.70;;;;;;5096427;28;20011;-64
2023/08/07 13:17:06;;;;;;;;;;;21.60;99.00;;;;;;5093023;28;19932;-64
2023/08/07 13:19:32;;;;;;;;;;;21.00;99.90;;;;;;5113724;28;19931;-64
2023/08/07 13:21:59;;;;;;;;;;;20.70;99.90;;;;;;5093875;28;19923;-64
2023/08/07 13:24:27;;;;;;;;;;;20.20;99.90;;;;;;5113810;28;19924;-64
2023/08/07 13:26:54;;;;;;;;;;;20.10;99.90;;;;;;5095932;28;19977;-63
2023/08/07 13:29:21;;;;;;;;;;;19.70;99.90;;;;;;5096014;28;20272;-64
2023/08/07 13:31:49;;;;;;;;;;;19.50;99.90;;;;;;5113501;28;20294;-64
2023/08/07 13:34:16;;;;;;;;;;;19.00;99.90;;;;;;5095995;28;20018;-64
2023/08/07 13:36:42;;;;;;;;;;;19.10;99.90;;;;;;5114186;28;19923;-64
2023/08/07 13:39:09;;;;;;;;;;;19.30;99.90;;;;;;5095201;28;20299;-64
2023/08/07 13:41:37;;;;;;;;;;;19.20;99.90;;;;;;5114070;28;19923;-64
2023/08/07 13:44:04;;;;;;;;;;;19.40;99.90;;;;;;5113690;28;20337;-64
2023/08/07 13:46:31;;;;;;;;;;;19.60;99.90;;;;;;5094851;28;19977;-65
2023/08/07 13:48:58;;;;;;;;;;;19.90;99.90;;;;;;5095651;28;19973;-63
2023/08/07 13:51:25;;;;;;;;;;;20.20;99.90;;;;;;5095666;28;20007;-64
2023/08/07 13:53:52;;;;;;;;;;;20.80;99.90;;;;;;5113071;28;19924;-64
2023/08/07 13:56:19;;;;;;;;;;;21.00;99.90;;;;;;5113644;28;19928;-64
2023/08/07 13:58:47;;;;;;;;;;;21.20;99.90;;;;;;5113593;28;19972;-65
2023/08/07 14:01:14;;;;;;;;;;;21.40;99.90;;;;;;5112275;28;20409;-65
2023/08/07 14:03:41;;;;;;;;;;;22.20;99.00;;;;;;5113249;28;19923;-64
2023/08/07 14:06:07;;;;;;;;;;;21.60;97.10;;;;;;5112643;28;19935;-64
2023/08/07 14:08:35;;;;;;;;;;;21.60;99.10;;;;;;5095444;28;19923;-64
2023/08/07 14:11:02;;;;;;;;;;;22.00;98.40;;;;;;5095021;28;19932;-65
2023/08/07 14:13:29;;;;;;;;;;;22.10;98.10;;;;;;5112704;28;19924;-64
2023/08/07 14:15:57;;;;;;;;;;;22.20;97.50;;;;;;5113065;28;19924;-64